sensor_id;sensor_type;location;lat;lon;timestamp;P1;durP1;ratioP1;P2;durP2;ratioP2
72404;SDS011;60395;52.020;113.548;2023-03-31T00:02:37;5.40;;;2.13;;
72404;SDS011;60395;52.020;113.548;2023-03-31T00:05:42;11.60;;;2.67;;
72404;SDS011;60395;52.020;113.548;2023-03-31T00:08:49;4.15;;;2.00;;
72404;SDS011;60395;52.020;113.548;2023-03-31T00:11:53;9.02;;;2.45;;
72404;SDS011;60395;52.020;113.548;2023-03-31T00:14:57;7.80;;;2.60;;
72404;SDS011;60395;52.020;113.548;2023-03-31T00:18:00;16.42;;;3.40;;
72404;SDS011;60395;52.020;113.548;2023-03-31T00:21:08;9.83;;;3.43;;
72404;SDS011;60395;52.020;113.548;2023-03-31T00:24:27;11.75;;;3.38;;
72404;SDS011;60395;52.020;113.548;2023-03-31T00:27:34;15.98;;;3.72;;
72404;SDS011;60395;52.020;113.548;2023-03-31T00:30:37;11.52;;;4.03;;
72404;SDS011;60395;52.020;113.548;2023-03-31T00:33:40;13.80;;;4.10;;
72404;SDS011;60395;52.020;113.548;2023-03-31T00:36:44;19.30;;;4.80;;
72404;SDS011;60395;52.020;113.548;2023-03-31T00:39:50;10.82;;;4.57;;
72404;SDS011;60395;52.020;113.548;2023-03-31T00:42:53;14.07;;;4.63;;
72404;SDS011;60395;52.020;113.548;2023-03-31T00:46:02;10.95;;;3.85;;
72404;SDS011;60395;52.020;113.548;2023-03-31T00:49:13;12.77;;;3.97;;
72404;SDS011;60395;52.020;113.548;2023-03-31T00:52:26;18.15;;;5.38;;
72404;SDS011;60395;52.020;113.548;2023-03-31T00:55:44;16.83;;;4.88;;
72404;SDS011;60395;52.020;113.548;2023-03-31T00:58:51;14.25;;;4.22;;
72404;SDS011;60395;52.020;113.548;2023-03-31T01:01:59;12.55;;;4.15;;
72404;SDS011;60395;52.020;113.548;2023-03-31T01:05:04;9.98;;;4.60;;
72404;SDS011;60395;52.020;113.548;2023-03-31T01:08:10;10.65;;;3.92;;
72404;SDS011;60395;52.020;113.548;2023-03-31T01:11:15;15.48;;;4.68;;
72404;SDS011;60395;52.020;113.548;2023-03-31T01:14:21;14.70;;;3.70;;
72404;SDS011;60395;52.020;113.548;2023-03-31T01:17:24;25.70;;;3.83;;
72404;SDS011;60395;52.020;113.548;2023-03-31T01:20:47;18.52;;;3.80;;
72404;SDS011;60395;52.020;113.548;2023-03-31T01:27:23;11.75;;;3.33;;
72404;SDS011;60395;52.020;113.548;2023-03-31T01:30:53;9.55;;;3.25;;
72404;SDS011;60395;52.020;113.548;2023-03-31T01:55:21;17.50;;;3.42;;
72404;SDS011;60395;52.020;113.548;2023-03-31T01:58:36;7.38;;;2.53;;
72404;SDS011;60395;52.020;113.548;2023-03-31T02:01:48;7.25;;;2.20;;
72404;SDS011;60395;52.020;113.548;2023-03-31T02:05:07;7.15;;;2.35;;
72404;SDS011;60395;52.020;113.548;2023-03-31T02:08:14;7.53;;;3.05;;
72404;SDS011;60395;52.020;113.548;2023-03-31T02:11:24;9.55;;;2.92;;
72404;SDS011;60395;52.020;113.548;2023-03-31T02:14:30;7.78;;;3.10;;
72404;SDS011;60395;52.020;113.548;2023-03-31T02:17:34;8.48;;;2.38;;
72404;SDS011;60395;52.020;113.548;2023-03-31T02:20:41;3.55;;;1.50;;
72404;SDS011;60395;52.020;113.548;2023-03-31T02:23:48;13.13;;;2.70;;
72404;SDS011;60395;52.020;113.548;2023-03-31T02:26:55;5.15;;;2.10;;
72404;SDS011;60395;52.020;113.548;2023-03-31T02:30:08;7.55;;;2.20;;
72404;SDS011;60395;52.020;113.548;2023-03-31T02:33:13;4.30;;;1.60;;
72404;SDS011;60395;52.020;113.548;2023-03-31T02:36:18;3.60;;;1.40;;
72404;SDS011;60395;52.020;113.548;2023-03-31T02:39:28;4.07;;;1.67;;
72404;SDS011;60395;52.020;113.548;2023-03-31T02:42:38;6.88;;;1.42;;
72404;SDS011;60395;52.020;113.548;2023-03-31T02:45:46;11.13;;;1.60;;
72404;SDS011;60395;52.020;113.548;2023-03-31T02:48:52;13.43;;;1.73;;
72404;SDS011;60395;52.020;113.548;2023-03-31T02:55:17;5.47;;;1.90;;
72404;SDS011;60395;52.020;113.548;2023-03-31T03:13:14;7.05;;;1.63;;
72404;SDS011;60395;52.020;113.548;2023-03-31T03:16:45;7.47;;;1.50;;
72404;SDS011;60395;52.020;113.548;2023-03-31T03:19:52;3.33;;;1.50;;
72404;SDS011;60395;52.020;113.548;2023-03-31T03:22:57;5.18;;;1.60;;
72404;SDS011;60395;52.020;113.548;2023-03-31T03:26:00;2.58;;;1.15;;
72404;SDS011;60395;52.020;113.548;2023-03-31T03:29:03;3.03;;;1.30;;
72404;SDS011;60395;52.020;113.548;2023-03-31T03:32:07;5.68;;;1.70;;
72404;SDS011;60395;52.020;113.548;2023-03-31T03:38:14;11.23;;;1.65;;
72404;SDS011;60395;52.020;113.548;2023-03-31T03:41:17;4.30;;;1.40;;
72404;SDS011;60395;52.020;113.548;2023-03-31T03:44:21;5.78;;;1.40;;
72404;SDS011;60395;52.020;113.548;2023-03-31T03:47:24;8.70;;;1.63;;
72404;SDS011;60395;52.020;113.548;2023-03-31T03:50:27;5.53;;;1.48;;
72404;SDS011;60395;52.020;113.548;2023-03-31T03:53:30;2.70;;;1.58;;
72404;SDS011;60395;52.020;113.548;2023-03-31T03:56:33;7.97;;;1.45;;
72404;SDS011;60395;52.020;113.548;2023-03-31T03:59:37;3.38;;;1.40;;
72404;SDS011;60395;52.020;113.548;2023-03-31T04:02:40;7.30;;;1.30;;
72404;SDS011;60395;52.020;113.548;2023-03-31T04:05:43;6.45;;;1.80;;
72404;SDS011;60395;52.020;113.548;2023-03-31T04:08:46;6.43;;;1.38;;
72404;SDS011;60395;52.020;113.548;2023-03-31T04:11:50;6.63;;;1.80;;
72404;SDS011;60395;52.020;113.548;2023-03-31T04:14:53;6.47;;;1.58;;
72404;SDS011;60395;52.020;113.548;2023-03-31T04:17:56;6.13;;;1.70;;
72404;SDS011;60395;52.020;113.548;2023-03-31T04:20:59;9.73;;;1.60;;
72404;SDS011;60395;52.020;113.548;2023-03-31T04:24:06;2.47;;;1.42;;
72404;SDS011;60395;52.020;113.548;2023-03-31T04:27:09;10.35;;;1.77;;
72404;SDS011;60395;52.020;113.548;2023-03-31T04:30:15;10.63;;;2.00;;
72404;SDS011;60395;52.020;113.548;2023-03-31T04:33:24;2.97;;;1.15;;
72404;SDS011;60395;52.020;113.548;2023-03-31T04:36:28;7.40;;;1.85;;
72404;SDS011;60395;52.020;113.548;2023-03-31T04:39:32;17.52;;;2.22;;
72404;SDS011;60395;52.020;113.548;2023-03-31T04:42:35;8.13;;;1.50;;
72404;SDS011;60395;52.020;113.548;2023-03-31T04:45:39;2.83;;;1.40;;
72404;SDS011;60395;52.020;113.548;2023-03-31T04:48:42;15.38;;;1.40;;
72404;SDS011;60395;52.020;113.548;2023-03-31T04:51:45;2.33;;;1.40;;
72404;SDS011;60395;52.020;113.548;2023-03-31T04:54:48;2.40;;;1.02;;
72404;SDS011;60395;52.020;113.548;2023-03-31T04:57:52;5.43;;;1.40;;
72404;SDS011;60395;52.020;113.548;2023-03-31T05:00:55;4.32;;;1.67;;
72404;SDS011;60395;52.020;113.548;2023-03-31T05:03:58;7.95;;;1.63;;
72404;SDS011;60395;52.020;113.548;2023-03-31T05:07:02;4.22;;;1.20;;
72404;SDS011;60395;52.020;113.548;2023-03-31T05:10:05;9.00;;;1.02;;
72404;SDS011;60395;52.020;113.548;2023-03-31T05:13:09;2.00;;;1.00;;
72404;SDS011;60395;52.020;113.548;2023-03-31T05:16:13;5.25;;;1.10;;
72404;SDS011;60395;52.020;113.548;2023-03-31T05:19:17;13.80;;;2.03;;
72404;SDS011;60395;52.020;113.548;2023-03-31T05:22:20;7.47;;;0.90;;
72404;SDS011;60395;52.020;113.548;2023-03-31T05:25:23;3.13;;;1.00;;
72404;SDS011;60395;52.020;113.548;2023-03-31T05:28:27;4.68;;;0.90;;
72404;SDS011;60395;52.020;113.548;2023-03-31T05:31:33;7.60;;;2.38;;
72404;SDS011;60395;52.020;113.548;2023-03-31T05:34:36;9.02;;;3.20;;
72404;SDS011;60395;52.020;113.548;2023-03-31T05:37:39;7.45;;;1.20;;
72404;SDS011;60395;52.020;113.548;2023-03-31T05:40:42;13.27;;;1.70;;
72404;SDS011;60395;52.020;113.548;2023-03-31T05:43:45;4.57;;;1.33;;
72404;SDS011;60395;52.020;113.548;2023-03-31T05:46:49;6.25;;;1.60;;
72404;SDS011;60395;52.020;113.548;2023-03-31T05:49:52;7.15;;;1.77;;
72404;SDS011;60395;52.020;113.548;2023-03-31T05:52:55;20.95;;;3.40;;
72404;SDS011;60395;52.020;113.548;2023-03-31T05:55:59;6.18;;;1.67;;
72404;SDS011;60395;52.020;113.548;2023-03-31T05:59:05;6.43;;;1.50;;
72404;SDS011;60395;52.020;113.548;2023-03-31T06:02:10;4.18;;;1.60;;
72404;SDS011;60395;52.020;113.548;2023-03-31T06:05:14;3.65;;;1.30;;
72404;SDS011;60395;52.020;113.548;2023-03-31T06:08:18;9.48;;;1.33;;
72404;SDS011;60395;52.020;113.548;2023-03-31T06:11:21;5.40;;;1.23;;
72404;SDS011;60395;52.020;113.548;2023-03-31T06:14:25;5.43;;;1.10;;
72404;SDS011;60395;52.020;113.548;2023-03-31T06:20:33;5.95;;;1.20;;
72404;SDS011;60395;52.020;113.548;2023-03-31T06:23:36;7.07;;;1.10;;
72404;SDS011;60395;52.020;113.548;2023-03-31T06:26:39;3.72;;;1.10;;
72404;SDS011;60395;52.020;113.548;2023-03-31T06:29:43;6.82;;;1.30;;
72404;SDS011;60395;52.020;113.548;2023-03-31T06:32:46;7.65;;;1.35;;
72404;SDS011;60395;52.020;113.548;2023-03-31T06:35:50;4.22;;;1.10;;
72404;SDS011;60395;52.020;113.548;2023-03-31T06:38:53;7.35;;;1.20;;
72404;SDS011;60395;52.020;113.548;2023-03-31T06:41:56;7.05;;;0.93;;
72404;SDS011;60395;52.020;113.548;2023-03-31T06:45:01;5.05;;;1.30;;
72404;SDS011;60395;52.020;113.548;2023-03-31T06:48:05;21.70;;;1.75;;
72404;SDS011;60395;52.020;113.548;2023-03-31T06:51:08;3.92;;;0.80;;
72404;SDS011;60395;52.020;113.548;2023-03-31T06:54:12;4.13;;;1.17;;
72404;SDS011;60395;52.020;113.548;2023-03-31T06:57:16;7.28;;;1.20;;
72404;SDS011;60395;52.020;113.548;2023-03-31T07:00:19;3.03;;;1.10;;
72404;SDS011;60395;52.020;113.548;2023-03-31T07:03:24;1.80;;;0.90;;
72404;SDS011;60395;52.020;113.548;2023-03-31T07:06:27;2.88;;;0.90;;
72404;SDS011;60395;52.020;113.548;2023-03-31T07:09:30;5.65;;;0.90;;
72404;SDS011;60395;52.020;113.548;2023-03-31T07:12:34;5.63;;;1.35;;
72404;SDS011;60395;52.020;113.548;2023-03-31T07:15:37;9.40;;;1.20;;
72404;SDS011;60395;52.020;113.548;2023-03-31T07:18:40;13.18;;;1.80;;
72404;SDS011;60395;52.020;113.548;2023-03-31T07:21:44;11.23;;;1.55;;
72404;SDS011;60395;52.020;113.548;2023-03-31T07:24:47;9.75;;;2.00;;
72404;SDS011;60395;52.020;113.548;2023-03-31T07:27:50;8.48;;;1.40;;
72404;SDS011;60395;52.020;113.548;2023-03-31T07:30:53;22.67;;;3.03;;
72404;SDS011;60395;52.020;113.548;2023-03-31T07:33:56;16.02;;;2.17;;
72404;SDS011;60395;52.020;113.548;2023-03-31T07:37:00;7.88;;;1.60;;
72404;SDS011;60395;52.020;113.548;2023-03-31T07:40:04;20.38;;;2.70;;
72404;SDS011;60395;52.020;113.548;2023-03-31T07:43:08;11.77;;;1.77;;
72404;SDS011;60395;52.020;113.548;2023-03-31T07:46:15;18.48;;;2.33;;
72404;SDS011;60395;52.020;113.548;2023-03-31T07:49:21;61.45;;;4.88;;
72404;SDS011;60395;52.020;113.548;2023-03-31T07:52:24;19.83;;;2.40;;
72404;SDS011;60395;52.020;113.548;2023-03-31T07:55:27;24.92;;;2.92;;
72404;SDS011;60395;52.020;113.548;2023-03-31T07:58:30;7.65;;;1.73;;
72404;SDS011;60395;52.020;113.548;2023-03-31T08:01:34;8.57;;;1.60;;
72404;SDS011;60395;52.020;113.548;2023-03-31T08:04:37;10.47;;;1.50;;
72404;SDS011;60395;52.020;113.548;2023-03-31T08:07:44;15.63;;;2.00;;
72404;SDS011;60395;52.020;113.548;2023-03-31T08:10:48;25.60;;;3.55;;
72404;SDS011;60395;52.020;113.548;2023-03-31T08:13:52;14.88;;;1.90;;
72404;SDS011;60395;52.020;113.548;2023-03-31T08:16:55;15.10;;;1.70;;
72404;SDS011;60395;52.020;113.548;2023-03-31T08:19:59;16.38;;;1.90;;
72404;SDS011;60395;52.020;113.548;2023-03-31T08:23:08;17.60;;;2.53;;
72404;SDS011;60395;52.020;113.548;2023-03-31T08:26:14;34.40;;;2.10;;
72404;SDS011;60395;52.020;113.548;2023-03-31T08:29:23;26.20;;;2.63;;
72404;SDS011;60395;52.020;113.548;2023-03-31T08:32:28;15.60;;;1.63;;
72404;SDS011;60395;52.020;113.548;2023-03-31T08:35:34;12.00;;;2.05;;
72404;SDS011;60395;52.020;113.548;2023-03-31T08:38:38;21.67;;;1.92;;
72404;SDS011;60395;52.020;113.548;2023-03-31T08:41:59;18.05;;;2.72;;
72404;SDS011;60395;52.020;113.548;2023-03-31T08:48:29;14.15;;;2.00;;
72404;SDS011;60395;52.020;113.548;2023-03-31T08:52:00;28.00;;;4.63;;
72404;SDS011;60395;52.020;113.548;2023-03-31T08:55:09;67.53;;;5.65;;
72404;SDS011;60395;52.020;113.548;2023-03-31T09:08:36;26.70;;;3.10;;
72404;SDS011;60395;52.020;113.548;2023-03-31T09:11:46;29.75;;;4.03;;
72404;SDS011;60395;52.020;113.548;2023-03-31T09:15:01;55.47;;;4.30;;
72404;SDS011;60395;52.020;113.548;2023-03-31T09:18:14;32.75;;;5.43;;
72404;SDS011;60395;52.020;113.548;2023-03-31T09:25:20;29.25;;;7.45;;
72404;SDS011;60395;52.020;113.548;2023-03-31T09:28:20;19.63;;;4.97;;
72404;SDS011;60395;52.020;113.548;2023-03-31T09:31:25;21.20;;;4.93;;
72404;SDS011;60395;52.020;113.548;2023-03-31T09:34:30;18.17;;;5.88;;
72404;SDS011;60395;52.020;113.548;2023-03-31T09:37:34;32.42;;;6.60;;
72404;SDS011;60395;52.020;113.548;2023-03-31T09:40:38;36.25;;;7.28;;
72404;SDS011;60395;52.020;113.548;2023-03-31T09:43:42;12.70;;;5.47;;
72404;SDS011;60395;52.020;113.548;2023-03-31T09:46:47;25.95;;;6.57;;
72404;SDS011;60395;52.020;113.548;2023-03-31T09:49:52;29.52;;;11.25;;
72404;SDS011;60395;52.020;113.548;2023-03-31T09:52:56;10.52;;;3.92;;
72404;SDS011;60395;52.020;113.548;2023-03-31T09:56:02;24.95;;;6.38;;
72404;SDS011;60395;52.020;113.548;2023-03-31T09:59:30;19.65;;;4.68;;
72404;SDS011;60395;52.020;113.548;2023-03-31T10:02:36;19.65;;;5.97;;
72404;SDS011;60395;52.020;113.548;2023-03-31T10:05:49;13.70;;;5.30;;
72404;SDS011;60395;52.020;113.548;2023-03-31T10:08:54;15.20;;;3.92;;
72404;SDS011;60395;52.020;113.548;2023-03-31T10:12:07;27.80;;;6.22;;
72404;SDS011;60395;52.020;113.548;2023-03-31T10:15:20;24.83;;;6.30;;
72404;SDS011;60395;52.020;113.548;2023-03-31T10:18:36;24.00;;;5.40;;
72404;SDS011;60395;52.020;113.548;2023-03-31T10:21:41;14.23;;;4.30;;
72404;SDS011;60395;52.020;113.548;2023-03-31T10:24:49;26.30;;;5.22;;
72404;SDS011;60395;52.020;113.548;2023-03-31T10:27:54;19.52;;;4.07;;
72404;SDS011;60395;52.020;113.548;2023-03-31T10:30:58;21.38;;;3.75;;
72404;SDS011;60395;52.020;113.548;2023-03-31T10:34:04;27.55;;;3.72;;
